Details From EGHI - Southampton
To LFOT - Tours Val De Loire Ab
Flight Number -
Tags Generated
Created
Modified
Stats Distance 227 nm / 420 km
Max Altitude 0 ft / 0 m
Waypoints 3
Social Downloads 0
Likes 0
Share VATSIM

Download

Looking for another format? Having issues loading an existing format? Contact us
Advertisement - Login to hide

Notes

Generated

Route

EGHI DEVRO LFOT

ID Type Via Altitude Latitude Longitude Leg Dist Tot Dist Heading (true) Name
O EGHI APT - 0 ft / 0 m 50.94295˚ -1.36088˚ - 0 nm - -
DEVRO FIX - 0 ft / 0 m 47.49556˚ 0.73861˚ 222 nm 222 nm 158° / 159° -
O LFOT APT - 0 ft / 0 m 47.42722˚ 0.72658˚ 4 nm 226 nm 187° / 187° Tours Val De Loire AB

Altitude Profile

Advertisement - Login to hide

Weather


0- 5 10 15 20 25 30 35+ Temperature / ° C

Clouds and Precipitation
Forecast for 2017-12-11 18:00 UTC. Updated 32 minutes ago

Ground ~20,000 ft ~40,000 ft Winds

EGHI

Details ICAO EGHI (SOU)
Name Southampton
Region United Kingdom
Timezone Europe/London (UTC+0.0)
Stats Elevation 44 ft / 13 m (AMSL)
Location 50.950255° -1.356806°
Runways 1
Magnetic Variation 0.814° W

METAR

EGHI 111320Z 35016KT 9999 -DZ FEW011 BKN018 02/00 Q0984

Decode

TAF

Not found

Departure Runways

ID Width Length Bearing (true) Bearing (mag) Surface Threshold Offset Overrun Length
02 121 ft / 37 m 5,650 ft / 1,722 m 19.33° 20.14° Asphalt 240 ft / 73 m 0 ft / 0 m
20 121 ft / 37 m 5,650 ft / 1,722 m 199.34° 200.15° Asphalt 144 ft / 44 m 0 ft / 0 m

LFOT

Details ICAO LFOT (TUF)
Name Tours Val De Loire AB
Region France
Timezone Europe/Paris (UTC+1.0)
Stats Elevation 356 ft / 109 m (AMSL)
Location 47.432974° 0.728402°
Runways 2
Magnetic Variation 0.191° E

METAR

LFOT 111330Z AUTO 25018G29KT 9999 -RA BKN015 OVC020 06/04 Q0979 NOSIG

Decode

TAF

TAF LFOT 111100Z 1112/1212 22020G35KT 9999 BKN025 PROB40 TEMPO 1112/1114 22030G48KT 4000 SHRA BKN008 BKN020TCU BECMG 1115/1117 30015G25KT BECMG 1117/1119 30008KT TEMPO 1121/1202 BKN008

Decode

Destination Runways

ID Width Length Bearing (true) Bearing (mag) Surface Threshold Offset Overrun Length
02 148 ft / 45 m 7,891 ft / 2,405 m 15.22° 15.03° Concrete 0 ft / 0 m 968 ft / 295 m
02R 197 ft / 60 m 4,925 ft / 1,501 m 15.24° 15.05° Grass 0 ft / 0 m 0 ft / 0 m
20 148 ft / 45 m 7,891 ft / 2,405 m 195.22° 195.03° Concrete 0 ft / 0 m 393 ft / 120 m
20L 197 ft / 60 m 4,925 ft / 1,501 m 195.24° 195.05° Grass 0 ft / 0 m 0 ft / 0 m

Approach Navaids

Runway Type Ident Frequency Range Bearing (true) Bearing (mag) Slope Elevation
20 Localiser TS 110.55 MHz 18 nm / 33 km 195.21° 195.02° - 341 ft / 104 m (AMSL)
20 Glidescope TS 110.55 MHz 10 nm / 19 km 195.22° 195.03° 3.00° 341 ft / 104 m (AMSL)
20 DME TS 110.55 MHz 18 nm / 33 km - - - 408 ft / 124 m (AMSL)